sensor_id;sensor_type;location;lat;lon;timestamp;P1;durP1;ratioP1;P2;durP2;ratioP2
33148;SDS011;19506;51.040;3.856;2023-08-07T00:00:41;33.50;;;14.57;;
33148;SDS011;19506;51.040;3.856;2023-08-07T00:03:06;31.90;;;14.27;;
33148;SDS011;19506;51.040;3.856;2023-08-07T00:05:32;34.80;;;15.25;;
33148;SDS011;19506;51.040;3.856;2023-08-07T00:07:57;34.53;;;14.85;;
33148;SDS011;19506;51.040;3.856;2023-08-07T00:10:23;31.73;;;13.63;;
33148;SDS011;19506;51.040;3.856;2023-08-07T00:12:49;33.45;;;14.93;;
33148;SDS011;19506;51.040;3.856;2023-08-07T00:15:15;30.45;;;14.85;;
33148;SDS011;19506;51.040;3.856;2023-08-07T00:17:41;27.20;;;13.50;;
33148;SDS011;19506;51.040;3.856;2023-08-07T00:20:07;29.90;;;12.95;;
33148;SDS011;19506;51.040;3.856;2023-08-07T00:22:33;28.50;;;14.05;;
33148;SDS011;19506;51.040;3.856;2023-08-07T00:24:59;27.05;;;13.75;;
33148;SDS011;19506;51.040;3.856;2023-08-07T00:27:24;28.63;;;13.32;;
33148;SDS011;19506;51.040;3.856;2023-08-07T00:29:50;27.27;;;13.68;;
33148;SDS011;19506;51.040;3.856;2023-08-07T00:32:16;25.70;;;13.65;;
33148;SDS011;19506;51.040;3.856;2023-08-07T00:34:42;26.08;;;12.98;;
33148;SDS011;19506;51.040;3.856;2023-08-07T00:37:08;32.83;;;13.30;;
33148;SDS011;19506;51.040;3.856;2023-08-07T00:39:33;34.13;;;14.60;;
33148;SDS011;19506;51.040;3.856;2023-08-07T00:41:59;31.73;;;14.00;;
33148;SDS011;19506;51.040;3.856;2023-08-07T00:44:25;27.13;;;13.98;;
33148;SDS011;19506;51.040;3.856;2023-08-07T00:46:51;30.88;;;13.13;;
33148;SDS011;19506;51.040;3.856;2023-08-07T00:49:17;26.10;;;13.45;;
33148;SDS011;19506;51.040;3.856;2023-08-07T00:51:45;31.58;;;13.20;;
33148;SDS011;19506;51.040;3.856;2023-08-07T00:54:11;24.73;;;12.40;;
33148;SDS011;19506;51.040;3.856;2023-08-07T00:56:39;31.08;;;12.32;;
33148;SDS011;19506;51.040;3.856;2023-08-07T00:59:05;24.98;;;12.57;;
33148;SDS011;19506;51.040;3.856;2023-08-07T01:01:32;27.85;;;12.50;;
33148;SDS011;19506;51.040;3.856;2023-08-07T01:03:58;24.00;;;12.20;;
33148;SDS011;19506;51.040;3.856;2023-08-07T01:06:23;25.27;;;11.35;;
33148;SDS011;19506;51.040;3.856;2023-08-07T01:08:49;23.58;;;13.15;;
33148;SDS011;19506;51.040;3.856;2023-08-07T01:18:52;23.05;;;10.27;;
33148;SDS011;19506;51.040;3.856;2023-08-07T01:21:20;21.45;;;11.23;;
33148;SDS011;19506;51.040;3.856;2023-08-07T01:23:46;24.05;;;11.40;;
33148;SDS011;19506;51.040;3.856;2023-08-07T01:26:13;25.92;;;11.35;;
33148;SDS011;19506;51.040;3.856;2023-08-07T01:28:42;27.98;;;12.40;;
33148;SDS011;19506;51.040;3.856;2023-08-07T01:31:13;25.70;;;11.60;;
33148;SDS011;19506;51.040;3.856;2023-08-07T01:33:47;19.50;;;10.40;;
33148;SDS011;19506;51.040;3.856;2023-08-07T01:36:27;23.80;;;11.85;;
33148;SDS011;19506;51.040;3.856;2023-08-07T01:38:55;24.20;;;11.60;;
33148;SDS011;19506;51.040;3.856;2023-08-07T01:41:24;21.00;;;10.77;;
33148;SDS011;19506;51.040;3.856;2023-08-07T01:43:50;24.05;;;10.73;;
33148;SDS011;19506;51.040;3.856;2023-08-07T01:46:16;18.05;;;10.68;;
33148;SDS011;19506;51.040;3.856;2023-08-07T01:48:42;25.63;;;10.75;;
33148;SDS011;19506;51.040;3.856;2023-08-07T01:51:08;23.20;;;11.23;;
33148;SDS011;19506;51.040;3.856;2023-08-07T01:53:33;22.98;;;10.15;;
33148;SDS011;19506;51.040;3.856;2023-08-07T01:55:59;24.50;;;11.40;;
33148;SDS011;19506;51.040;3.856;2023-08-07T01:58:25;23.42;;;10.93;;
33148;SDS011;19506;51.040;3.856;2023-08-07T02:00:51;20.38;;;10.57;;
33148;SDS011;19506;51.040;3.856;2023-08-07T02:03:17;21.08;;;10.13;;
33148;SDS011;19506;51.040;3.856;2023-08-07T02:05:47;20.23;;;9.75;;
33148;SDS011;19506;51.040;3.856;2023-08-07T02:08:12;19.25;;;10.20;;
33148;SDS011;19506;51.040;3.856;2023-08-07T02:10:39;18.13;;;9.65;;
33148;SDS011;19506;51.040;3.856;2023-08-07T02:13:04;20.63;;;10.18;;
33148;SDS011;19506;51.040;3.856;2023-08-07T02:15:30;19.73;;;9.63;;
33148;SDS011;19506;51.040;3.856;2023-08-07T02:17:56;17.90;;;10.45;;
33148;SDS011;19506;51.040;3.856;2023-08-07T02:20:21;20.38;;;8.68;;
33148;SDS011;19506;51.040;3.856;2023-08-07T02:22:47;21.98;;;9.93;;
33148;SDS011;19506;51.040;3.856;2023-08-07T02:25:13;19.40;;;9.98;;
33148;SDS011;19506;51.040;3.856;2023-08-07T02:27:38;18.52;;;8.45;;
33148;SDS011;19506;51.040;3.856;2023-08-07T02:30:04;19.30;;;9.25;;
33148;SDS011;19506;51.040;3.856;2023-08-07T02:32:31;18.58;;;9.43;;
33148;SDS011;19506;51.040;3.856;2023-08-07T02:34:56;19.30;;;9.80;;
33148;SDS011;19506;51.040;3.856;2023-08-07T02:37:22;16.50;;;8.85;;
33148;SDS011;19506;51.040;3.856;2023-08-07T02:39:48;16.67;;;8.70;;
33148;SDS011;19506;51.040;3.856;2023-08-07T02:42:14;16.08;;;9.48;;
33148;SDS011;19506;51.040;3.856;2023-08-07T02:44:40;15.90;;;8.20;;
33148;SDS011;19506;51.040;3.856;2023-08-07T02:47:05;19.42;;;9.57;;
33148;SDS011;19506;51.040;3.856;2023-08-07T02:49:31;18.30;;;9.30;;
33148;SDS011;19506;51.040;3.856;2023-08-07T02:51:57;15.30;;;8.10;;
33148;SDS011;19506;51.040;3.856;2023-08-07T02:54:23;21.23;;;10.02;;
33148;SDS011;19506;51.040;3.856;2023-08-07T02:56:49;16.95;;;8.93;;
33148;SDS011;19506;51.040;3.856;2023-08-07T02:59:15;17.63;;;8.30;;
33148;SDS011;19506;51.040;3.856;2023-08-07T03:01:41;19.60;;;9.02;;
33148;SDS011;19506;51.040;3.856;2023-08-07T03:04:08;19.27;;;10.27;;
33148;SDS011;19506;51.040;3.856;2023-08-07T03:06:34;17.65;;;8.82;;
33148;SDS011;19506;51.040;3.856;2023-08-07T03:08:59;17.55;;;8.30;;
33148;SDS011;19506;51.040;3.856;2023-08-07T03:11:25;15.18;;;8.32;;
33148;SDS011;19506;51.040;3.856;2023-08-07T03:13:51;15.15;;;8.68;;
33148;SDS011;19506;51.040;3.856;2023-08-07T03:16:17;17.95;;;8.52;;
33148;SDS011;19506;51.040;3.856;2023-08-07T03:18:42;14.77;;;8.43;;
33148;SDS011;19506;51.040;3.856;2023-08-07T03:21:08;16.00;;;7.80;;
33148;SDS011;19506;51.040;3.856;2023-08-07T03:23:34;15.82;;;8.93;;
33148;SDS011;19506;51.040;3.856;2023-08-07T03:26:03;13.57;;;7.63;;
33148;SDS011;19506;51.040;3.856;2023-08-07T03:28:30;18.98;;;8.93;;
33148;SDS011;19506;51.040;3.856;2023-08-07T03:30:56;14.48;;;8.48;;
33148;SDS011;19506;51.040;3.856;2023-08-07T03:33:22;13.73;;;8.48;;
33148;SDS011;19506;51.040;3.856;2023-08-07T03:35:47;16.55;;;8.25;;
33148;SDS011;19506;51.040;3.856;2023-08-07T03:38:13;14.35;;;7.82;;
33148;SDS011;19506;51.040;3.856;2023-08-07T03:40:39;12.75;;;7.80;;
33148;SDS011;19506;51.040;3.856;2023-08-07T03:43:04;19.40;;;8.57;;
33148;SDS011;19506;51.040;3.856;2023-08-07T03:45:30;15.88;;;8.27;;
33148;SDS011;19506;51.040;3.856;2023-08-07T03:47:55;15.63;;;8.25;;
33148;SDS011;19506;51.040;3.856;2023-08-07T03:50:21;13.77;;;7.60;;
33148;SDS011;19506;51.040;3.856;2023-08-07T03:52:47;12.30;;;6.88;;
33148;SDS011;19506;51.040;3.856;2023-08-07T03:55:12;15.60;;;7.47;;
33148;SDS011;19506;51.040;3.856;2023-08-07T03:57:38;13.93;;;7.22;;
33148;SDS011;19506;51.040;3.856;2023-08-07T04:00:04;14.60;;;7.90;;
33148;SDS011;19506;51.040;3.856;2023-08-07T04:02:30;18.63;;;8.13;;
33148;SDS011;19506;51.040;3.856;2023-08-07T04:04:56;15.07;;;7.28;;
33148;SDS011;19506;51.040;3.856;2023-08-07T04:07:22;13.93;;;7.53;;
33148;SDS011;19506;51.040;3.856;2023-08-07T04:09:47;14.82;;;7.18;;
33148;SDS011;19506;51.040;3.856;2023-08-07T04:12:13;15.35;;;7.28;;
33148;SDS011;19506;51.040;3.856;2023-08-07T04:14:39;21.25;;;9.25;;
33148;SDS011;19506;51.040;3.856;2023-08-07T04:17:04;16.73;;;6.85;;
33148;SDS011;19506;51.040;3.856;2023-08-07T04:19:30;14.98;;;7.25;;
33148;SDS011;19506;51.040;3.856;2023-08-07T04:21:56;14.18;;;7.13;;
33148;SDS011;19506;51.040;3.856;2023-08-07T04:24:21;15.85;;;7.22;;
33148;SDS011;19506;51.040;3.856;2023-08-07T04:26:47;12.43;;;7.25;;
33148;SDS011;19506;51.040;3.856;2023-08-07T04:29:13;17.13;;;7.85;;
33148;SDS011;19506;51.040;3.856;2023-08-07T04:31:38;19.27;;;6.80;;
33148;SDS011;19506;51.040;3.856;2023-08-07T04:34:04;12.88;;;6.63;;
33148;SDS011;19506;51.040;3.856;2023-08-07T04:36:29;10.60;;;5.95;;
33148;SDS011;19506;51.040;3.856;2023-08-07T04:38:55;10.45;;;6.30;;
33148;SDS011;19506;51.040;3.856;2023-08-07T04:41:21;11.27;;;6.28;;
33148;SDS011;19506;51.040;3.856;2023-08-07T04:43:47;16.48;;;7.40;;
33148;SDS011;19506;51.040;3.856;2023-08-07T04:46:13;14.32;;;6.82;;
33148;SDS011;19506;51.040;3.856;2023-08-07T04:48:40;14.40;;;6.60;;
33148;SDS011;19506;51.040;3.856;2023-08-07T04:51:06;13.15;;;6.25;;
33148;SDS011;19506;51.040;3.856;2023-08-07T04:53:31;11.90;;;6.43;;
33148;SDS011;19506;51.040;3.856;2023-08-07T04:55:58;14.05;;;6.28;;
33148;SDS011;19506;51.040;3.856;2023-08-07T04:58:25;10.68;;;6.40;;
33148;SDS011;19506;51.040;3.856;2023-08-07T05:00:54;15.35;;;7.15;;
33148;SDS011;19506;51.040;3.856;2023-08-07T05:03:21;11.52;;;6.43;;
33148;SDS011;19506;51.040;3.856;2023-08-07T05:05:46;12.50;;;6.43;;
33148;SDS011;19506;51.040;3.856;2023-08-07T05:08:12;13.20;;;7.05;;
33148;SDS011;19506;51.040;3.856;2023-08-07T05:10:38;14.68;;;7.50;;
33148;SDS011;19506;51.040;3.856;2023-08-07T05:13:03;10.57;;;6.35;;
33148;SDS011;19506;51.040;3.856;2023-08-07T05:15:29;11.50;;;6.47;;
33148;SDS011;19506;51.040;3.856;2023-08-07T05:17:56;12.27;;;6.40;;
33148;SDS011;19506;51.040;3.856;2023-08-07T05:20:22;12.73;;;6.65;;
33148;SDS011;19506;51.040;3.856;2023-08-07T05:22:47;11.32;;;5.82;;
33148;SDS011;19506;51.040;3.856;2023-08-07T05:25:13;13.65;;;6.25;;
33148;SDS011;19506;51.040;3.856;2023-08-07T05:27:42;10.57;;;5.78;;
33148;SDS011;19506;51.040;3.856;2023-08-07T05:30:09;13.63;;;6.13;;
33148;SDS011;19506;51.040;3.856;2023-08-07T05:32:35;10.93;;;6.25;;
33148;SDS011;19506;51.040;3.856;2023-08-07T05:35:03;12.80;;;6.45;;
33148;SDS011;19506;51.040;3.856;2023-08-07T05:37:30;14.50;;;6.43;;
33148;SDS011;19506;51.040;3.856;2023-08-07T05:39:56;12.63;;;6.00;;
33148;SDS011;19506;51.040;3.856;2023-08-07T05:42:22;9.98;;;5.93;;
33148;SDS011;19506;51.040;3.856;2023-08-07T05:44:48;9.20;;;5.97;;
33148;SDS011;19506;51.040;3.856;2023-08-07T05:47:14;12.85;;;6.75;;
33148;SDS011;19506;51.040;3.856;2023-08-07T05:49:39;16.55;;;6.70;;
33148;SDS011;19506;51.040;3.856;2023-08-07T05:52:05;11.25;;;6.13;;
33148;SDS011;19506;51.040;3.856;2023-08-07T05:54:31;10.95;;;6.18;;
33148;SDS011;19506;51.040;3.856;2023-08-07T05:56:57;14.70;;;5.82;;
33148;SDS011;19506;51.040;3.856;2023-08-07T05:59:22;10.30;;;5.68;;
33148;SDS011;19506;51.040;3.856;2023-08-07T06:01:48;10.00;;;5.90;;
33148;SDS011;19506;51.040;3.856;2023-08-07T06:04:14;11.13;;;6.15;;
33148;SDS011;19506;51.040;3.856;2023-08-07T06:06:41;20.92;;;6.38;;
33148;SDS011;19506;51.040;3.856;2023-08-07T06:09:07;10.10;;;5.45;;
33148;SDS011;19506;51.040;3.856;2023-08-07T06:11:33;14.23;;;5.22;;
33148;SDS011;19506;51.040;3.856;2023-08-07T06:13:59;17.27;;;4.85;;
33148;SDS011;19506;51.040;3.856;2023-08-07T06:16:25;15.48;;;5.07;;
33148;SDS011;19506;51.040;3.856;2023-08-07T06:18:52;13.00;;;4.93;;
33148;SDS011;19506;51.040;3.856;2023-08-07T06:21:18;16.20;;;4.50;;
33148;SDS011;19506;51.040;3.856;2023-08-07T06:23:45;11.10;;;5.00;;
33148;SDS011;19506;51.040;3.856;2023-08-07T06:26:10;9.50;;;4.72;;
33148;SDS011;19506;51.040;3.856;2023-08-07T06:28:36;11.38;;;4.22;;
33148;SDS011;19506;51.040;3.856;2023-08-07T06:31:02;5.53;;;3.92;;
33148;SDS011;19506;51.040;3.856;2023-08-07T06:33:30;11.73;;;4.05;;
33148;SDS011;19506;51.040;3.856;2023-08-07T06:35:56;10.50;;;4.05;;
33148;SDS011;19506;51.040;3.856;2023-08-07T06:38:22;9.02;;;4.40;;
33148;SDS011;19506;51.040;3.856;2023-08-07T06:40:48;11.48;;;5.15;;
33148;SDS011;19506;51.040;3.856;2023-08-07T06:43:14;11.50;;;4.97;;
33148;SDS011;19506;51.040;3.856;2023-08-07T06:45:39;13.45;;;4.63;;
33148;SDS011;19506;51.040;3.856;2023-08-07T06:48:05;8.65;;;3.88;;
33148;SDS011;19506;51.040;3.856;2023-08-07T06:50:31;9.40;;;4.10;;
33148;SDS011;19506;51.040;3.856;2023-08-07T06:52:56;7.90;;;3.83;;
33148;SDS011;19506;51.040;3.856;2023-08-07T06:55:22;6.70;;;3.53;;
33148;SDS011;19506;51.040;3.856;2023-08-07T06:57:48;11.40;;;4.30;;
33148;SDS011;19506;51.040;3.856;2023-08-07T07:00:13;14.70;;;4.25;;
33148;SDS011;19506;51.040;3.856;2023-08-07T07:02:40;9.13;;;4.68;;
33148;SDS011;19506;51.040;3.856;2023-08-07T07:05:05;10.77;;;4.07;;
33148;SDS011;19506;51.040;3.856;2023-08-07T07:07:31;8.35;;;3.88;;
33148;SDS011;19506;51.040;3.856;2023-08-07T07:09:57;7.43;;;4.05;;
33148;SDS011;19506;51.040;3.856;2023-08-07T07:12:28;20.58;;;4.93;;
33148;SDS011;19506;51.040;3.856;2023-08-07T07:14:54;10.98;;;4.13;;
33148;SDS011;19506;51.040;3.856;2023-08-07T07:17:20;7.25;;;3.67;;
33148;SDS011;19506;51.040;3.856;2023-08-07T07:19:46;10.43;;;4.38;;
33148;SDS011;19506;51.040;3.856;2023-08-07T07:22:11;4.82;;;2.83;;
33148;SDS011;19506;51.040;3.856;2023-08-07T07:24:37;7.50;;;4.30;;
33148;SDS011;19506;51.040;3.856;2023-08-07T07:27:03;7.70;;;3.65;;
33148;SDS011;19506;51.040;3.856;2023-08-07T07:29:29;5.80;;;3.22;;
33148;SDS011;19506;51.040;3.856;2023-08-07T07:31:55;9.20;;;3.72;;
33148;SDS011;19506;51.040;3.856;2023-08-07T07:34:20;7.95;;;3.92;;
33148;SDS011;19506;51.040;3.856;2023-08-07T07:36:46;9.48;;;4.18;;
33148;SDS011;19506;51.040;3.856;2023-08-07T07:39:12;6.28;;;3.72;;
33148;SDS011;19506;51.040;3.856;2023-08-07T07:41:38;6.97;;;3.53;;
33148;SDS011;19506;51.040;3.856;2023-08-07T07:44:04;7.57;;;3.60;;
33148;SDS011;19506;51.040;3.856;2023-08-07T07:46:29;7.68;;;3.17;;
33148;SDS011;19506;51.040;3.856;2023-08-07T07:48:56;6.93;;;3.85;;
33148;SDS011;19506;51.040;3.856;2023-08-07T07:51:22;6.43;;;2.95;;
33148;SDS011;19506;51.040;3.856;2023-08-07T07:53:48;5.72;;;3.40;;
33148;SDS011;19506;51.040;3.856;2023-08-07T07:56:14;7.32;;;3.70;;
33148;SDS011;19506;51.040;3.856;2023-08-07T07:58:40;7.70;;;3.53;;
33148;SDS011;19506;51.040;3.856;2023-08-07T08:01:06;7.28;;;3.85;;
33148;SDS011;19506;51.040;3.856;2023-08-07T08:03:32;6.18;;;4.00;;
33148;SDS011;19506;51.040;3.856;2023-08-07T08:05:58;8.82;;;3.65;;
33148;SDS011;19506;51.040;3.856;2023-08-07T08:08:24;7.45;;;3.63;;
33148;SDS011;19506;51.040;3.856;2023-08-07T08:10:49;7.28;;;3.58;;
33148;SDS011;19506;51.040;3.856;2023-08-07T08:13:16;7.00;;;3.13;;
33148;SDS011;19506;51.040;3.856;2023-08-07T08:15:43;6.10;;;3.85;;
33148;SDS011;19506;51.040;3.856;2023-08-07T08:18:09;9.38;;;3.28;;
33148;SDS011;19506;51.040;3.856;2023-08-07T08:20:35;10.25;;;3.85;;
33148;SDS011;19506;51.040;3.856;2023-08-07T08:23:02;8.52;;;2.92;;
33148;SDS011;19506;51.040;3.856;2023-08-07T08:25:28;7.45;;;3.75;;
33148;SDS011;19506;51.040;3.856;2023-08-07T08:27:53;7.57;;;2.90;;
33148;SDS011;19506;51.040;3.856;2023-08-07T08:30:19;7.35;;;3.20;;
33148;SDS011;19506;51.040;3.856;2023-08-07T08:32:45;5.18;;;3.00;;
33148;SDS011;19506;51.040;3.856;2023-08-07T08:35:11;12.65;;;3.25;;
33148;SDS011;19506;51.040;3.856;2023-08-07T08:37:37;8.98;;;3.92;;
33148;SDS011;19506;51.040;3.856;2023-08-07T08:40:02;6.00;;;3.20;;
33148;SDS011;19506;51.040;3.856;2023-08-07T08:42:28;6.20;;;3.38;;
33148;SDS011;19506;51.040;3.856;2023-08-07T08:44:55;5.45;;;2.80;;
33148;SDS011;19506;51.040;3.856;2023-08-07T08:47:21;5.75;;;3.08;;
33148;SDS011;19506;51.040;3.856;2023-08-07T08:49:54;6.90;;;3.38;;
33148;SDS011;19506;51.040;3.856;2023-08-07T08:52:27;14.70;;;3.42;;
33148;SDS011;19506;51.040;3.856;2023-08-07T08:54:54;8.48;;;3.17;;
33148;SDS011;19506;51.040;3.856;2023-08-07T08:57:21;8.48;;;4.03;;
33148;SDS011;19506;51.040;3.856;2023-08-07T08:59:47;13.10;;;4.28;;
33148;SDS011;19506;51.040;3.856;2023-08-07T09:02:14;13.73;;;4.63;;
33148;SDS011;19506;51.040;3.856;2023-08-07T09:04:40;9.45;;;4.28;;
33148;SDS011;19506;51.040;3.856;2023-08-07T09:07:07;11.35;;;4.57;;
33148;SDS011;19506;51.040;3.856;2023-08-07T09:09:34;13.65;;;4.70;;
33148;SDS011;19506;51.040;3.856;2023-08-07T09:12:00;19.00;;;5.90;;
33148;SDS011;19506;51.040;3.856;2023-08-07T09:14:28;17.65;;;5.63;;
33148;SDS011;19506;51.040;3.856;2023-08-07T09:16:59;9.95;;;4.38;;
33148;SDS011;19506;51.040;3.856;2023-08-07T09:19:26;9.77;;;4.43;;
33148;SDS011;19506;51.040;3.856;2023-08-07T09:21:52;13.20;;;4.32;;
33148;SDS011;19506;51.040;3.856;2023-08-07T09:24:18;12.45;;;4.75;;
33148;SDS011;19506;51.040;3.856;2023-08-07T09:26:46;12.65;;;4.78;;
33148;SDS011;19506;51.040;3.856;2023-08-07T09:29:12;24.25;;;5.13;;
33148;SDS011;19506;51.040;3.856;2023-08-07T09:31:39;20.50;;;5.75;;
33148;SDS011;19506;51.040;3.856;2023-08-07T09:34:07;20.45;;;4.53;;
33148;SDS011;19506;51.040;3.856;2023-08-07T09:36:34;13.32;;;3.97;;
33148;SDS011;19506;51.040;3.856;2023-08-07T09:39:03;16.13;;;5.03;;
33148;SDS011;19506;51.040;3.856;2023-08-07T09:41:31;13.88;;;4.95;;
33148;SDS011;19506;51.040;3.856;2023-08-07T09:43:57;22.63;;;4.90;;
33148;SDS011;19506;51.040;3.856;2023-08-07T09:46:25;21.05;;;5.82;;
33148;SDS011;19506;51.040;3.856;2023-08-07T09:48:51;17.00;;;4.97;;
33148;SDS011;19506;51.040;3.856;2023-08-07T09:51:22;20.17;;;5.38;;
33148;SDS011;19506;51.040;3.856;2023-08-07T09:53:48;19.98;;;5.47;;
33148;SDS011;19506;51.040;3.856;2023-08-07T09:56:14;13.52;;;5.50;;
33148;SDS011;19506;51.040;3.856;2023-08-07T09:58:43;24.58;;;5.55;;
33148;SDS011;19506;51.040;3.856;2023-08-07T10:01:13;25.73;;;7.13;;
33148;SDS011;19506;51.040;3.856;2023-08-07T10:03:41;27.92;;;7.25;;
33148;SDS011;19506;51.040;3.856;2023-08-07T10:06:07;27.50;;;7.45;;
33148;SDS011;19506;51.040;3.856;2023-08-07T10:08:33;24.10;;;8.05;;
33148;SDS011;19506;51.040;3.856;2023-08-07T10:11:00;30.30;;;7.63;;
33148;SDS011;19506;51.040;3.856;2023-08-07T10:13:27;27.42;;;8.32;;
33148;SDS011;19506;51.040;3.856;2023-08-07T10:15:54;35.58;;;8.60;;
33148;SDS011;19506;51.040;3.856;2023-08-07T10:18:20;25.63;;;8.13;;
33148;SDS011;19506;51.040;3.856;2023-08-07T10:20:46;37.00;;;8.85;;
33148;SDS011;19506;51.040;3.856;2023-08-07T10:23:13;30.20;;;7.68;;
33148;SDS011;19506;51.040;3.856;2023-08-07T10:25:42;28.55;;;7.97;;
33148;SDS011;19506;51.040;3.856;2023-08-07T10:28:12;29.42;;;7.78;;
33148;SDS011;19506;51.040;3.856;2023-08-07T10:30:41;24.92;;;7.30;;
33148;SDS011;19506;51.040;3.856;2023-08-07T10:33:07;22.90;;;7.05;;
33148;SDS011;19506;51.040;3.856;2023-08-07T10:35:35;63.80;;;13.38;;
33148;SDS011;19506;51.040;3.856;2023-08-07T10:38:08;282.00;;;60.22;;
33148;SDS011;19506;51.040;3.856;2023-08-07T10:41:20;559.67;;;147.98;;
33148;SDS011;19506;51.040;3.856;2023-08-07T10:43:52;699.33;;;202.00;;
33148;SDS011;19506;51.040;3.856;2023-08-07T10:46:21;859.63;;;275.83;;
33148;SDS011;19506;51.040;3.856;2023-08-07T10:48:49;1070.40;;;367.30;;
33148;SDS011;19506;51.040;3.856;2023-08-07T10:51:22;1199.50;;;425.80;;
33148;SDS011;19506;51.040;3.856;2023-08-07T10:53:56;1136.40;;;403.20;;
33148;SDS011;19506;51.040;3.856;2023-08-07T10:58:56;1036.65;;;373.15;;
33148;SDS011;19506;51.040;3.856;2023-08-07T11:01:27;1012.00;;;363.80;;
33148;SDS011;19506;51.040;3.856;2023-08-07T11:04:00;998.45;;;349.10;;
33148;SDS011;19506;51.040;3.856;2023-08-07T11:06:39;947.58;;;342.95;;
33148;SDS011;19506;51.040;3.856;2023-08-07T11:09:07;931.40;;;336.73;;
33148;SDS011;19506;51.040;3.856;2023-08-07T11:11:36;937.10;;;326.20;;
33148;SDS011;19506;51.040;3.856;2023-08-07T11:14:08;910.85;;;330.92;;
33148;SDS011;19506;51.040;3.856;2023-08-07T11:16:36;898.67;;;323.48;;
33148;SDS011;19506;51.040;3.856;2023-08-07T11:19:02;853.25;;;312.23;;
33148;SDS011;19506;51.040;3.856;2023-08-07T11:21:30;854.15;;;308.50;;
33148;SDS011;19506;51.040;3.856;2023-08-07T11:23:57;864.60;;;304.13;;
33148;SDS011;19506;51.040;3.856;2023-08-07T11:26:23;817.08;;;286.52;;
33148;SDS011;19506;51.040;3.856;2023-08-07T11:28:51;799.97;;;283.90;;
33148;SDS011;19506;51.040;3.856;2023-08-07T11:31:17;763.08;;;272.15;;
33148;SDS011;19506;51.040;3.856;2023-08-07T11:33:44;749.70;;;259.05;;
33148;SDS011;19506;51.040;3.856;2023-08-07T11:36:10;730.47;;;254.88;;
33148;SDS011;19506;51.040;3.856;2023-08-07T11:38:40;714.85;;;251.13;;
33148;SDS011;19506;51.040;3.856;2023-08-07T11:41:10;689.97;;;242.63;;
33148;SDS011;19506;51.040;3.856;2023-08-07T11:43:37;688.55;;;234.13;;
33148;SDS011;19506;51.040;3.856;2023-08-07T11:46:04;672.47;;;231.40;;
33148;SDS011;19506;51.040;3.856;2023-08-07T11:48:31;656.97;;;230.25;;
33148;SDS011;19506;51.040;3.856;2023-08-07T11:50:58;642.10;;;217.18;;
33148;SDS011;19506;51.040;3.856;2023-08-07T11:53:26;645.63;;;220.98;;
33148;SDS011;19506;51.040;3.856;2023-08-07T11:56:07;617.47;;;211.10;;
33148;SDS011;19506;51.040;3.856;2023-08-07T11:58:39;615.83;;;210.68;;
33148;SDS011;19506;51.040;3.856;2023-08-07T12:01:12;608.83;;;211.27;;
33148;SDS011;19506;51.040;3.856;2023-08-07T12:03:50;612.00;;;206.70;;
33148;SDS011;19506;51.040;3.856;2023-08-07T12:06:20;587.35;;;201.43;;
33148;SDS011;19506;51.040;3.856;2023-08-07T12:08:48;577.95;;;196.02;;
33148;SDS011;19506;51.040;3.856;2023-08-07T12:11:16;599.53;;;199.55;;
33148;SDS011;19506;51.040;3.856;2023-08-07T12:13:42;591.08;;;198.35;;
33148;SDS011;19506;51.040;3.856;2023-08-07T12:16:10;565.40;;;188.43;;
33148;SDS011;19506;51.040;3.856;2023-08-07T12:18:42;566.53;;;188.38;;
33148;SDS011;19506;51.040;3.856;2023-08-07T12:21:13;571.50;;;183.57;;
33148;SDS011;19506;51.040;3.856;2023-08-07T12:23:40;553.40;;;185.05;;
33148;SDS011;19506;51.040;3.856;2023-08-07T12:26:06;524.33;;;175.23;;
33148;SDS011;19506;51.040;3.856;2023-08-07T12:28:35;529.65;;;172.20;;
33148;SDS011;19506;51.040;3.856;2023-08-07T12:31:01;516.42;;;166.95;;
33148;SDS011;19506;51.040;3.856;2023-08-07T12:33:28;518.45;;;168.70;;
33148;SDS011;19506;51.040;3.856;2023-08-07T12:35:54;515.35;;;167.07;;
33148;SDS011;19506;51.040;3.856;2023-08-07T12:38:21;524.55;;;166.35;;
33148;SDS011;19506;51.040;3.856;2023-08-07T12:40:47;483.83;;;156.02;;
33148;SDS011;19506;51.040;3.856;2023-08-07T12:43:12;490.77;;;156.27;;
33148;SDS011;19506;51.040;3.856;2023-08-07T12:45:38;472.10;;;151.13;;
33148;SDS011;19506;51.040;3.856;2023-08-07T12:48:04;479.35;;;153.35;;
33148;SDS011;19506;51.040;3.856;2023-08-07T12:50:30;490.23;;;149.38;;
33148;SDS011;19506;51.040;3.856;2023-08-07T12:52:56;439.33;;;141.10;;
33148;SDS011;19506;51.040;3.856;2023-08-07T12:55:22;430.15;;;137.68;;
33148;SDS011;19506;51.040;3.856;2023-08-07T12:57:48;412.67;;;133.38;;
33148;SDS011;19506;51.040;3.856;2023-08-07T13:00:14;423.35;;;137.95;;
33148;SDS011;19506;51.040;3.856;2023-08-07T13:02:41;429.52;;;134.07;;
33148;SDS011;19506;51.040;3.856;2023-08-07T13:05:08;397.85;;;131.23;;
33148;SDS011;19506;51.040;3.856;2023-08-07T13:07:35;376.67;;;125.40;;
33148;SDS011;19506;51.040;3.856;2023-08-07T13:10:02;386.15;;;123.50;;
33148;SDS011;19506;51.040;3.856;2023-08-07T13:12:29;378.30;;;120.60;;
33148;SDS011;19506;51.040;3.856;2023-08-07T13:14:58;366.35;;;119.03;;
33148;SDS011;19506;51.040;3.856;2023-08-07T13:17:24;343.08;;;112.68;;
33148;SDS011;19506;51.040;3.856;2023-08-07T13:19:50;328.23;;;111.38;;
33148;SDS011;19506;51.040;3.856;2023-08-07T13:22:16;339.08;;;105.07;;
33148;SDS011;19506;51.040;3.856;2023-08-07T13:24:41;311.67;;;104.82;;
33148;SDS011;19506;51.040;3.856;2023-08-07T13:27:08;313.00;;;102.15;;
33148;SDS011;19506;51.040;3.856;2023-08-07T13:29:33;311.30;;;100.45;;
33148;SDS011;19506;51.040;3.856;2023-08-07T13:31:59;314.08;;;100.95;;
33148;SDS011;19506;51.040;3.856;2023-08-07T13:34:25;307.85;;;99.43;;
33148;SDS011;19506;51.040;3.856;2023-08-07T13:36:51;296.67;;;94.40;;
33148;SDS011;19506;51.040;3.856;2023-08-07T13:39:16;282.10;;;93.95;;
33148;SDS011;19506;51.040;3.856;2023-08-07T13:41:42;286.08;;;99.28;;
33148;SDS011;19506;51.040;3.856;2023-08-07T13:44:08;296.67;;;96.78;;
33148;SDS011;19506;51.040;3.856;2023-08-07T13:46:33;268.50;;;92.75;;
33148;SDS011;19506;51.040;3.856;2023-08-07T13:48:59;261.33;;;91.65;;
33148;SDS011;19506;51.040;3.856;2023-08-07T13:51:25;277.00;;;93.38;;
33148;SDS011;19506;51.040;3.856;2023-08-07T13:53:51;258.02;;;90.13;;
33148;SDS011;19506;51.040;3.856;2023-08-07T13:56:17;291.80;;;90.90;;
33148;SDS011;19506;51.040;3.856;2023-08-07T13:58:43;237.10;;;82.50;;
33148;SDS011;19506;51.040;3.856;2023-08-07T14:01:09;237.70;;;81.78;;
33148;SDS011;19506;51.040;3.856;2023-08-07T14:03:34;218.07;;;74.85;;
33148;SDS011;19506;51.040;3.856;2023-08-07T14:06:00;229.35;;;72.07;;
33148;SDS011;19506;51.040;3.856;2023-08-07T14:08:26;210.38;;;72.32;;
33148;SDS011;19506;51.040;3.856;2023-08-07T14:10:53;212.82;;;69.32;;
33148;SDS011;19506;51.040;3.856;2023-08-07T14:13:19;197.07;;;63.90;;
33148;SDS011;19506;51.040;3.856;2023-08-07T14:15:45;190.55;;;63.97;;
33148;SDS011;19506;51.040;3.856;2023-08-07T14:18:14;177.38;;;63.75;;
33148;SDS011;19506;51.040;3.856;2023-08-07T14:20:40;175.75;;;60.03;;
33148;SDS011;19506;51.040;3.856;2023-08-07T14:23:06;181.20;;;59.92;;
33148;SDS011;19506;51.040;3.856;2023-08-07T14:25:32;169.07;;;56.10;;
33148;SDS011;19506;51.040;3.856;2023-08-07T14:27:57;177.73;;;58.15;;
33148;SDS011;19506;51.040;3.856;2023-08-07T14:30:24;168.48;;;54.67;;
33148;SDS011;19506;51.040;3.856;2023-08-07T14:32:49;159.35;;;51.90;;